createdAt,value
2023-05-01T00:00:29.026Z,13.02
2023-05-01T00:02:56.544Z,13.77
2023-05-01T00:05:23.572Z,13.43
2023-05-01T00:07:50.791Z,13.70
2023-05-01T00:10:18.453Z,12.52
2023-05-01T00:12:45.370Z,13.65
2023-05-01T00:15:12.331Z,14.27
2023-05-01T00:17:39.311Z,13.93
2023-05-01T00:20:07.088Z,13.55
2023-05-01T00:22:34.025Z,14.68
2023-05-01T00:25:01.074Z,14.35
2023-05-01T00:27:27.966Z,15.45
2023-05-01T00:29:55.038Z,16.25
2023-05-01T00:32:22.143Z,15.23
2023-05-01T00:34:49.629Z,15.32
2023-05-01T00:37:17.547Z,14.73
2023-05-01T00:39:44.499Z,15.43
2023-05-01T00:42:11.574Z,15.65
2023-05-01T00:44:38.575Z,14.48
2023-05-01T00:47:05.534Z,15.35
2023-05-01T00:49:32.645Z,14.80
2023-05-01T00:51:59.686Z,16.40
2023-05-01T00:54:28.302Z,15.60
2023-05-01T00:56:55.351Z,15.73
2023-05-01T00:59:22.693Z,15.50
2023-05-01T01:01:50.776Z,16.42
2023-05-01T01:04:17.895Z,16.35
2023-05-01T01:07:09.654Z,15.68
2023-05-01T01:10:05.359Z,15.48
2023-05-01T01:12:47.539Z,16.25
2023-05-01T01:15:22.741Z,15.77
2023-05-01T01:18:38.584Z,15.30
2023-05-01T01:21:16.886Z,15.15
2023-05-01T01:24:12.178Z,15.63
2023-05-01T01:26:58.759Z,15.07
2023-05-01T01:29:50.439Z,14.95
2023-05-01T01:32:41.998Z,15.70
2023-05-01T01:35:12.898Z,16.27
2023-05-01T01:37:52.321Z,16.40
2023-05-01T01:40:21.680Z,15.55
2023-05-01T01:43:08.966Z,16.80
2023-05-01T01:45:43.505Z,16.52
2023-05-01T01:48:18.303Z,16.42
2023-05-01T01:50:46.075Z,15.85
2023-05-01T01:53:16.026Z,15.55
2023-05-01T01:55:44.527Z,16.30
2023-05-01T01:58:11.492Z,15.38
2023-05-01T02:00:39.223Z,14.63
2023-05-01T02:03:06.283Z,17.02
2023-05-01T02:05:33.512Z,15.27
2023-05-01T02:08:00.541Z,16.98
2023-05-01T02:10:27.487Z,15.90
2023-05-01T02:12:54.599Z,16.60
2023-05-01T02:15:22.149Z,15.77
2023-05-01T02:17:49.299Z,15.07
2023-05-01T02:20:16.381Z,14.55
2023-05-01T02:22:43.616Z,15.88
2023-05-01T02:25:12.134Z,16.05
2023-05-01T02:27:40.949Z,15.50
2023-05-01T02:30:09.436Z,15.82
2023-05-01T02:32:36.472Z,15.48
2023-05-01T02:35:03.603Z,15.00
2023-05-01T02:37:33.508Z,15.30
2023-05-01T02:40:02.975Z,14.93
2023-05-01T02:42:30.031Z,15.35
2023-05-01T02:45:04.634Z,15.48
2023-05-01T02:47:34.235Z,15.10
2023-05-01T02:50:01.733Z,15.82
2023-05-01T02:52:28.961Z,15.73
2023-05-01T02:55:10.947Z,16.08
2023-05-01T02:57:38.519Z,14.82
2023-05-01T03:00:09.481Z,15.65
2023-05-01T03:02:36.495Z,15.97
2023-05-01T03:05:03.756Z,16.17
2023-05-01T03:07:35.156Z,14.90
2023-05-01T03:10:04.034Z,16.35
2023-05-01T03:12:31.515Z,16.25
2023-05-01T03:14:58.556Z,16.77
2023-05-01T03:17:25.755Z,16.00
2023-05-01T03:19:52.842Z,17.40
2023-05-01T03:22:19.807Z,17.08
2023-05-01T03:24:47.717Z,17.67
2023-05-01T03:27:14.843Z,18.02
2023-05-01T03:29:41.862Z,18.02
2023-05-01T03:32:09.227Z,17.27
2023-05-01T03:34:36.456Z,17.30
2023-05-01T03:37:03.441Z,17.00
2023-05-01T03:39:30.852Z,17.58
2023-05-01T03:42:16.500Z,16.67
2023-05-01T03:44:44.478Z,17.42
2023-05-01T03:47:11.629Z,17.17
2023-05-01T03:49:43.736Z,17.02
2023-05-01T03:52:12.615Z,16.98
2023-05-01T03:54:42.434Z,17.25
2023-05-01T03:57:21.087Z,17.42
2023-05-01T03:59:48.217Z,17.27
2023-05-01T04:02:15.661Z,17.98
2023-05-01T04:04:43.783Z,16.88
2023-05-01T04:07:10.733Z,17.15
2023-05-01T04:09:37.904Z,17.98
2023-05-01T04:12:04.919Z,16.67
2023-05-01T04:14:31.837Z,17.70
2023-05-01T04:16:59.496Z,16.65
2023-05-01T04:19:28.230Z,16.20
2023-05-01T04:21:58.418Z,15.70
2023-05-01T04:24:26.276Z,13.80
2023-05-01T04:26:53.939Z,13.73
2023-05-01T04:29:21.057Z,13.98
2023-05-01T04:31:48.232Z,14.05
2023-05-01T04:34:15.272Z,12.98
2023-05-01T04:36:42.223Z,12.45
2023-05-01T04:39:09.197Z,12.02
2023-05-01T04:41:36.573Z,10.77
2023-05-01T04:44:05.416Z,11.05
2023-05-01T04:46:33.544Z,9.55
2023-05-01T04:49:01.079Z,9.20
2023-05-01T04:51:29.100Z,8.13
2023-05-01T04:53:56.320Z,8.10
2023-05-01T04:56:26.850Z,7.45
2023-05-01T04:58:58.288Z,8.15
2023-05-01T05:01:27.293Z,7.35
2023-05-01T05:03:54.702Z,7.20
2023-05-01T05:06:22.920Z,7.20
2023-05-01T05:08:52.173Z,7.03
2023-05-01T05:11:19.585Z,7.18
2023-05-01T05:13:57.878Z,7.03
2023-05-01T05:16:25.230Z,7.15
2023-05-01T05:18:54.916Z,7.30
2023-05-01T05:21:22.526Z,6.90
2023-05-01T05:23:53.245Z,7.57
2023-05-01T05:26:20.275Z,6.88
2023-05-01T05:28:48.498Z,7.10
2023-05-01T05:31:15.480Z,7.05
2023-05-01T05:33:42.546Z,6.35
2023-05-01T05:36:09.676Z,6.80
2023-05-01T05:38:40.826Z,5.97
2023-05-01T05:41:10.348Z,5.93
2023-05-01T05:43:37.482Z,5.40
2023-05-01T05:46:05.535Z,4.90
2023-05-01T05:48:34.412Z,4.72
2023-05-01T05:51:01.464Z,4.40
2023-05-01T05:53:28.666Z,4.43
2023-05-01T05:55:55.597Z,4.93
2023-05-01T05:58:25.906Z,4.35
2023-05-01T06:00:59.032Z,4.30
2023-05-01T06:03:27.360Z,4.18
2023-05-01T06:05:58.364Z,4.18
2023-05-01T06:08:25.502Z,4.00
2023-05-01T06:10:52.482Z,5.05
2023-05-01T06:13:19.562Z,4.57
2023-05-01T06:15:49.171Z,4.40
2023-05-01T06:18:16.627Z,4.35
2023-05-01T06:20:43.721Z,4.90
2023-05-01T06:23:10.852Z,4.70
2023-05-01T06:25:59.137Z,4.80
2023-05-01T06:28:26.116Z,5.25
2023-05-01T06:30:53.317Z,4.95
2023-05-01T06:33:20.876Z,5.40
2023-05-01T06:36:00.496Z,4.82
2023-05-01T06:38:27.640Z,4.82
2023-05-01T06:40:54.711Z,5.55
2023-05-01T06:43:21.648Z,4.95
2023-05-01T06:45:48.894Z,4.20
2023-05-01T06:48:16.288Z,4.85
2023-05-01T06:50:43.212Z,5.10
2023-05-01T06:53:10.218Z,4.60
2023-05-01T06:55:37.140Z,4.88
2023-05-01T06:58:12.659Z,4.97
2023-05-01T07:00:50.484Z,4.60
2023-05-01T07:03:17.673Z,4.70
2023-05-01T07:05:44.785Z,4.82
2023-05-01T07:08:11.956Z,5.03
2023-05-01T07:10:40.551Z,5.05
2023-05-01T07:13:09.408Z,5.00
2023-05-01T07:15:36.684Z,5.00
2023-05-01T07:18:06.212Z,5.20
2023-05-01T07:20:34.611Z,4.90
2023-05-01T07:23:01.634Z,5.00
2023-05-01T07:25:28.614Z,10.88
2023-05-01T07:27:55.690Z,5.38
2023-05-01T07:30:22.722Z,4.72
2023-05-01T07:32:49.879Z,4.80
2023-05-01T07:35:16.935Z,4.70
2023-05-01T07:37:43.990Z,4.80
2023-05-01T07:40:11.825Z,4.88
2023-05-01T07:42:39.058Z,4.55
2023-05-01T07:45:07.455Z,4.70
2023-05-01T07:47:34.524Z,4.57
2023-05-01T07:50:01.576Z,4.80
2023-05-01T07:52:28.604Z,4.50
2023-05-01T07:54:55.618Z,4.53
2023-05-01T07:57:25.171Z,5.00
2023-05-01T07:59:56.868Z,4.35
2023-05-01T08:02:24.190Z,4.85
2023-05-01T08:04:51.799Z,4.25
2023-05-01T08:07:18.980Z,4.60
2023-05-01T08:09:46.603Z,4.45
2023-05-01T08:12:13.633Z,4.43
2023-05-01T08:14:40.619Z,4.55
2023-05-01T08:17:07.770Z,4.32
2023-05-01T08:19:35.076Z,4.65
2023-05-01T08:22:02.186Z,4.57
2023-05-01T08:24:29.804Z,4.90
2023-05-01T08:26:56.972Z,4.35
2023-05-01T08:29:23.955Z,4.47
2023-05-01T08:31:51.258Z,4.88
2023-05-01T08:34:18.327Z,4.05
2023-05-01T08:36:45.277Z,4.82
2023-05-01T08:39:12.443Z,4.80
2023-05-01T08:41:39.419Z,4.90
2023-05-01T08:44:08.636Z,4.25
2023-05-01T08:46:57.984Z,4.60
2023-05-01T08:49:24.958Z,4.43
2023-05-01T08:51:53.136Z,4.15
2023-05-01T08:54:20.484Z,3.78
2023-05-01T08:56:47.760Z,4.38
2023-05-01T08:59:15.227Z,4.20
2023-05-01T09:01:43.743Z,4.13
2023-05-01T09:04:10.779Z,3.60
2023-05-01T09:06:37.871Z,4.53
2023-05-01T09:09:04.857Z,3.90
2023-05-01T09:11:31.804Z,4.03
2023-05-01T09:13:58.979Z,4.13
2023-05-01T09:16:26.086Z,4.18
2023-05-01T09:18:53.531Z,3.95
2023-05-01T09:21:20.531Z,4.57
2023-05-01T09:23:50.784Z,4.45
2023-05-01T09:26:18.235Z,4.28
2023-05-01T09:28:46.915Z,4.00
2023-05-01T09:31:30.322Z,4.32
2023-05-01T09:33:58.387Z,4.30
2023-05-01T09:36:26.792Z,4.00
2023-05-01T09:38:54.004Z,4.05
2023-05-01T09:41:21.350Z,4.40
2023-05-01T09:43:52.648Z,4.50
2023-05-01T09:46:20.187Z,4.20
2023-05-01T09:48:58.697Z,5.05
2023-05-01T09:51:27.383Z,4.45
2023-05-01T09:54:02.206Z,4.22
2023-05-01T09:56:30.059Z,4.68
2023-05-01T09:58:58.059Z,4.43
2023-05-01T10:01:41.526Z,5.03
2023-05-01T10:04:11.872Z,4.60
2023-05-01T10:06:39.572Z,4.70
2023-05-01T10:09:07.262Z,4.50
2023-05-01T10:11:52.253Z,4.75
2023-05-01T10:14:20.418Z,4.20
2023-05-01T10:16:47.534Z,4.60
2023-05-01T10:19:15.253Z,4.90
2023-05-01T10:21:42.463Z,4.35
2023-05-01T10:24:10.286Z,4.43
2023-05-01T10:26:37.439Z,4.55
2023-05-01T10:29:04.554Z,3.63
2023-05-01T10:31:33.295Z,4.13
2023-05-01T10:34:03.149Z,3.97
2023-05-01T10:36:39.297Z,4.55
2023-05-01T10:39:06.901Z,4.10
2023-05-01T10:41:58.812Z,4.00
2023-05-01T10:46:53.915Z,4.80
2023-05-01T10:49:21.596Z,4.63
2023-05-01T10:52:01.327Z,4.60
2023-05-01T10:54:31.610Z,4.40
2023-05-01T10:57:02.391Z,4.13
2023-05-01T11:00:01.850Z,3.97
2023-05-01T11:02:30.623Z,3.75
2023-05-01T11:04:57.911Z,3.17
2023-05-01T11:07:26.176Z,3.40
2023-05-01T11:09:58.932Z,3.15
2023-05-01T11:12:51.772Z,3.78
2023-05-01T11:15:27.826Z,2.97
2023-05-01T11:17:56.208Z,2.70
2023-05-01T11:20:26.407Z,2.75
2023-05-01T11:22:54.216Z,2.50
2023-05-01T11:25:22.927Z,2.65
2023-05-01T11:27:54.675Z,2.40
2023-05-01T11:30:21.731Z,2.45
2023-05-01T11:32:50.178Z,2.35
2023-05-01T11:35:24.144Z,3.15
2023-05-01T11:37:56.064Z,2.35
2023-05-01T11:40:30.480Z,2.30
2023-05-01T11:43:04.920Z,3.15
2023-05-01T11:45:32.093Z,2.45
2023-05-01T11:48:01.992Z,2.50
2023-05-01T11:50:35.528Z,2.13
2023-05-01T11:53:02.972Z,2.40
2023-05-01T11:55:36.260Z,2.10
2023-05-01T11:58:04.126Z,2.30
2023-05-01T12:00:39.605Z,2.53
2023-05-01T12:03:08.763Z,2.10
2023-05-01T12:05:37.447Z,2.35
2023-05-01T12:08:14.413Z,2.03
2023-05-01T12:10:43.601Z,2.40
2023-05-01T12:13:12.066Z,2.45
2023-05-01T12:15:46.248Z,2.50
2023-05-01T12:18:14.422Z,2.00
2023-05-01T12:20:46.143Z,2.20
2023-05-01T12:23:13.862Z,2.10
2023-05-01T12:25:41.021Z,2.03
2023-05-01T12:28:13.256Z,2.45
2023-05-01T12:30:40.614Z,2.30
2023-05-01T12:33:11.862Z,2.60
2023-05-01T12:35:39.809Z,2.33
2023-05-01T12:38:20.144Z,2.35
2023-05-01T12:40:57.833Z,2.58
2023-05-01T12:43:34.376Z,2.20
2023-05-01T12:46:01.875Z,2.50
2023-05-01T12:48:29.538Z,2.60
2023-05-01T12:50:56.927Z,2.30
2023-05-01T12:53:25.083Z,2.20
2023-05-01T12:55:53.416Z,2.90
2023-05-01T12:58:20.514Z,2.55
2023-05-01T13:00:48.378Z,2.58
2023-05-01T13:03:18.571Z,2.20
2023-05-01T13:05:56.487Z,2.40
2023-05-01T13:08:42.468Z,1.88
2023-05-01T13:11:13.028Z,2.10
2023-05-01T13:13:40.608Z,1.60
2023-05-01T13:16:17.014Z,1.73
2023-05-01T13:18:53.194Z,2.00
2023-05-01T13:21:22.089Z,1.88
2023-05-01T13:23:56.822Z,1.80
2023-05-01T13:26:31.592Z,2.30
2023-05-01T13:29:00.127Z,2.10
2023-05-01T13:31:27.356Z,2.42
2023-05-01T13:33:54.889Z,2.78
2023-05-01T13:36:26.036Z,2.45
2023-05-01T13:38:56.094Z,2.30
2023-05-01T13:41:24.498Z,2.00
2023-05-01T13:43:52.290Z,2.25
2023-05-01T13:46:21.354Z,1.88
2023-05-01T13:48:48.923Z,2.00
2023-05-01T13:51:22.690Z,1.98
2023-05-01T13:53:49.653Z,2.08
2023-05-01T13:56:16.619Z,1.90
2023-05-01T13:58:43.598Z,2.30
2023-05-01T14:01:19.062Z,2.10
2023-05-01T14:03:46.430Z,2.40
2023-05-01T14:06:17.358Z,2.13
2023-05-01T14:08:44.699Z,2.58
2023-05-01T14:11:11.860Z,2.80
2023-05-01T14:13:40.892Z,2.72
2023-05-01T14:16:11.856Z,2.70
2023-05-01T14:18:45.714Z,2.72
2023-05-01T14:21:16.321Z,2.83
2023-05-01T14:23:43.427Z,2.57
2023-05-01T14:26:11.536Z,2.70
2023-05-01T14:28:43.263Z,2.72
2023-05-01T14:31:17.578Z,2.70
2023-05-01T14:33:44.945Z,2.22
2023-05-01T14:36:12.452Z,1.80
2023-05-01T14:38:40.450Z,2.72
2023-05-01T14:41:08.908Z,2.00
2023-05-01T14:43:37.789Z,1.98
2023-05-01T14:46:04.869Z,1.92
2023-05-01T14:48:35.611Z,2.28
2023-05-01T14:51:10.529Z,1.80
2023-05-01T14:53:37.533Z,2.00
2023-05-01T14:56:04.650Z,1.90
2023-05-01T14:58:31.598Z,2.25
2023-05-01T15:00:58.508Z,1.98
2023-05-01T15:03:25.615Z,2.10
2023-05-01T15:05:53.364Z,2.40
2023-05-01T15:08:20.787Z,1.90
2023-05-01T15:10:47.700Z,2.10
2023-05-01T15:13:14.776Z,2.45
2023-05-01T15:15:41.816Z,1.90
2023-05-01T15:18:08.778Z,1.83
2023-05-01T15:20:35.925Z,1.60
2023-05-01T15:23:02.892Z,1.70
2023-05-01T15:25:29.805Z,1.67
2023-05-01T15:27:57.206Z,2.22
2023-05-01T15:30:24.170Z,1.70
2023-05-01T15:32:51.867Z,1.52
2023-05-01T15:35:21.736Z,1.70
2023-05-01T15:37:48.749Z,1.80
2023-05-01T15:40:15.788Z,1.73
2023-05-01T15:42:43.264Z,1.80
2023-05-01T15:45:11.323Z,1.90
2023-05-01T15:47:38.742Z,1.73
2023-05-01T15:50:09.441Z,1.75
2023-05-01T15:52:36.586Z,2.03
2023-05-01T15:55:03.753Z,2.03
2023-05-01T15:57:32.611Z,1.70
2023-05-01T16:02:32.671Z,1.70
2023-05-01T16:05:00.315Z,1.52
2023-05-01T16:07:29.166Z,1.70
2023-05-01T16:09:57.316Z,1.90
2023-05-01T16:12:24.645Z,1.98
2023-05-01T16:14:51.957Z,1.90
2023-05-01T16:17:19.719Z,2.10
2023-05-01T16:19:47.175Z,2.08
2023-05-01T16:22:14.970Z,1.90
2023-05-01T16:24:41.968Z,1.90
2023-05-01T16:27:12.231Z,2.28
2023-05-01T16:29:39.148Z,1.95
2023-05-01T16:32:06.539Z,1.95
2023-05-01T16:34:33.850Z,2.10
2023-05-01T16:37:00.950Z,2.03
2023-05-01T16:39:27.930Z,2.10
2023-05-01T16:41:55.046Z,1.90
2023-05-01T16:44:22.491Z,1.90
2023-05-01T16:46:52.166Z,2.10
2023-05-01T16:49:19.277Z,2.13
2023-05-01T16:51:46.196Z,2.00
2023-05-01T16:54:13.348Z,2.00
2023-05-01T16:56:40.336Z,2.40
2023-05-01T16:59:07.365Z,2.30
2023-05-01T17:01:34.825Z,2.00
2023-05-01T17:04:02.333Z,1.98
2023-05-01T17:06:29.395Z,1.90
2023-05-01T17:08:56.407Z,1.88
2023-05-01T17:11:24.650Z,2.28
2023-05-01T17:13:52.626Z,2.10
2023-05-01T17:16:19.764Z,2.20
2023-05-01T17:18:46.887Z,2.60
2023-05-01T17:21:13.927Z,2.08
2023-05-01T17:23:40.920Z,2.20
2023-05-01T17:26:08.247Z,2.30
2023-05-01T17:28:35.164Z,2.30
2023-05-01T17:31:02.177Z,2.30
2023-05-01T17:33:30.475Z,2.40
2023-05-01T17:35:59.724Z,2.10
2023-05-01T17:38:27.163Z,2.28
2023-05-01T17:40:54.282Z,3.42
2023-05-01T17:43:21.430Z,16.48
2023-05-01T17:45:50.282Z,2.55
2023-05-01T17:48:19.731Z,3.10
2023-05-01T17:50:47.475Z,2.17
2023-05-01T17:53:14.792Z,2.40
2023-05-01T17:55:41.921Z,2.20
2023-05-01T17:58:08.891Z,2.53
2023-05-01T18:00:36.211Z,2.38
2023-05-01T18:03:05.337Z,2.40
2023-05-01T18:05:33.040Z,2.30
2023-05-01T18:08:00.127Z,3.10
2023-05-01T18:10:31.248Z,2.70
2023-05-01T18:12:58.490Z,2.50
2023-05-01T18:15:25.937Z,2.42
2023-05-01T18:17:53.231Z,2.40
2023-05-01T18:20:20.437Z,2.60
2023-05-01T18:22:47.453Z,2.50
2023-05-01T18:25:16.076Z,2.95
2023-05-01T18:27:43.594Z,2.45
2023-05-01T18:30:10.947Z,2.60
2023-05-01T18:32:47.596Z,2.50
2023-05-01T18:35:17.197Z,2.88
2023-05-01T18:37:44.335Z,2.78
2023-05-01T18:40:11.937Z,3.17
2023-05-01T18:42:41.136Z,3.28
2023-05-01T18:45:09.994Z,3.20
2023-05-01T18:47:37.014Z,3.25
2023-05-01T18:50:05.629Z,2.88
2023-05-01T18:52:32.953Z,3.00
2023-05-01T18:54:59.960Z,3.00
2023-05-01T18:57:28.703Z,2.72
2023-05-01T18:59:55.813Z,3.00
2023-05-01T19:02:22.965Z,2.83
2023-05-01T19:04:57.340Z,3.28
2023-05-01T19:07:26.298Z,3.15
2023-05-01T19:09:53.502Z,3.08
2023-05-01T19:12:20.632Z,3.08
2023-05-01T19:14:47.766Z,3.17
2023-05-01T19:17:14.874Z,2.75
2023-05-01T19:19:41.998Z,3.15
2023-05-01T19:22:09.099Z,2.95
2023-05-01T19:24:36.194Z,3.53
2023-05-01T19:27:03.432Z,3.42
2023-05-01T19:29:33.647Z,3.50
2023-05-01T19:32:00.671Z,3.85
2023-05-01T19:34:28.184Z,4.70
2023-05-01T19:36:57.118Z,3.85
2023-05-01T19:39:24.244Z,3.67
2023-05-01T19:41:51.598Z,3.67
2023-05-01T19:44:18.657Z,3.78
2023-05-01T19:46:45.624Z,3.90
2023-05-01T19:49:12.571Z,3.40
2023-05-01T19:51:39.553Z,3.50
2023-05-01T19:54:06.637Z,3.25
2023-05-01T19:56:34.094Z,3.30
2023-05-01T19:59:01.071Z,3.40
2023-05-01T20:01:29.873Z,3.58
2023-05-01T20:03:57.253Z,3.63
2023-05-01T20:06:24.341Z,3.53
2023-05-01T20:08:51.362Z,3.60
2023-05-01T20:11:18.445Z,3.40
2023-05-01T20:13:46.063Z,3.80
2023-05-01T20:16:13.288Z,3.80
2023-05-01T20:18:40.297Z,3.38
2023-05-01T20:21:07.868Z,3.72
2023-05-01T20:23:35.198Z,4.00
2023-05-01T20:26:02.163Z,3.80
2023-05-01T20:28:29.392Z,4.03
2023-05-01T20:30:56.532Z,3.80
2023-05-01T20:33:23.547Z,3.83
2023-05-01T20:35:51.409Z,4.00
2023-05-01T20:38:18.454Z,4.32
2023-05-01T20:40:45.529Z,3.67
2023-05-01T20:43:12.988Z,3.85
2023-05-01T20:45:40.124Z,3.90
2023-05-01T20:48:07.576Z,3.92
2023-05-01T20:50:35.494Z,3.90
2023-05-01T20:53:02.488Z,4.28
2023-05-01T20:55:30.024Z,3.80
2023-05-01T20:57:56.944Z,4.10
2023-05-01T21:00:23.884Z,3.90
2023-05-01T21:02:53.002Z,3.85
2023-05-01T21:05:20.377Z,4.10
2023-05-01T21:07:48.173Z,3.78
2023-05-01T21:10:20.557Z,4.30
2023-05-01T21:12:50.721Z,3.92
2023-05-01T21:15:18.433Z,4.75
2023-05-01T21:17:46.618Z,4.50
2023-05-01T21:20:17.298Z,4.93
2023-05-01T21:22:46.316Z,4.77
2023-05-01T21:25:13.401Z,5.07
2023-05-01T21:27:43.607Z,5.00
2023-05-01T21:30:15.093Z,5.30
2023-05-01T21:32:42.168Z,5.22
2023-05-01T21:35:10.278Z,5.47
2023-05-01T21:37:37.795Z,4.75
2023-05-01T21:40:08.456Z,4.78
2023-05-01T21:42:37.936Z,4.72
2023-05-01T21:45:09.027Z,4.45
2023-05-01T21:47:38.141Z,4.28
2023-05-01T21:50:06.769Z,4.22
2023-05-01T21:52:34.579Z,3.80
2023-05-01T21:55:06.449Z,3.65
2023-05-01T21:57:35.502Z,3.70
2023-05-01T22:00:04.647Z,3.97
2023-05-01T22:02:45.447Z,3.75
2023-05-01T22:05:14.400Z,3.22
2023-05-01T22:07:41.821Z,3.05
2023-05-01T22:10:10.274Z,3.10
2023-05-01T22:12:38.394Z,2.97
2023-05-01T22:15:09.618Z,2.50
2023-05-01T22:17:37.461Z,2.47
2023-05-01T22:20:09.157Z,2.30
2023-05-01T22:25:04.013Z,2.40
2023-05-01T22:27:31.480Z,2.40
2023-05-01T22:29:58.633Z,2.50
2023-05-01T22:32:25.789Z,2.30
2023-05-01T22:34:52.728Z,2.40
2023-05-01T22:37:19.828Z,2.10
2023-05-01T22:39:46.775Z,2.10
2023-05-01T22:42:13.798Z,2.10
2023-05-01T22:44:41.010Z,2.65
2023-05-01T22:47:07.928Z,2.45
2023-05-01T22:49:34.815Z,2.50
2023-05-01T22:52:02.547Z,2.33
2023-05-01T22:54:29.474Z,2.50
2023-05-01T22:56:56.734Z,2.65
2023-05-01T22:59:24.185Z,2.58
2023-05-01T23:01:51.132Z,2.47
2023-05-01T23:04:18.306Z,2.65
2023-05-01T23:06:45.479Z,2.35
2023-05-01T23:09:12.536Z,2.80
2023-05-01T23:11:40.424Z,2.70
2023-05-01T23:14:07.528Z,2.22
2023-05-01T23:16:41.752Z,2.45
2023-05-01T23:19:22.705Z,2.50
2023-05-01T23:21:50.134Z,2.60
2023-05-01T23:24:21.240Z,2.70
2023-05-01T23:26:48.348Z,2.60
2023-05-01T23:29:16.112Z,2.70
2023-05-01T23:31:47.146Z,2.50
2023-05-01T23:34:17.699Z,2.80
2023-05-01T23:36:47.716Z,2.50
2023-05-01T23:39:14.734Z,2.50
2023-05-01T23:41:42.234Z,2.55
2023-05-01T23:44:09.699Z,2.67
2023-05-01T23:46:37.231Z,2.70
2023-05-01T23:49:04.268Z,2.60
2023-05-01T23:51:31.633Z,2.40
2023-05-01T23:53:58.884Z,2.65
2023-05-01T23:56:26.033Z,2.40
2023-05-01T23:58:53.165Z,2.50
